Dobrodošli na spletni strani vremenske postaje Senovo. Vse informacije so informativnega značaja, saj vremenska postaja ni del državne mreže meteoroloških postaj. AKTUALNIH OBVESTIL NI.


Sneg/Led Od: 23-02-2018 00:00 Do: 23:59 Opozorilo za: Sneg/Led Stopnja: Rumena info button

Pogled proti Armezu več informacij Pogled proti Armezu


Lisca več informacij Lisca


Radar strel več informacij blitzortung!


opozorilo za sneg/led več informacij rain snow radar


Obiščite še:

Template documentation
and downloads

And another site



Weather Underground, zgodovina - Tekstovno

Dnevni povzetek za Januar 30, 2018 Enote:  Obe    Angleško   Metrično
« Predhodni Dan
Naslednji Dan »
Dnevni Tedenski Mesečni Letni Po meri
  Višja: Nižja: Povprečje:
Temperatura: TemperatureC °F /  -17.8 °C -0.9 °F /  -18.3 °C 3.6 °F /  -15.8 °C
Točka rosišča: DewpointC °F /  -17.8 °C -2.6 °F /  -19.2 °C 1 °F /  -17.2 °C
Vlažnost: Humidity % 57 % 84 %
Hitrost vetra: WindSpeedKMH mph /  0 km/h - 1.4 mph /  2.3 km/h
Sunki vetra: WindSpeedGustKMH mph /  0 km/h - -
Veter:- - WSW
Zračni tlak: PressurehPa in /  0 hPa 1020.9 in /  34567.7 hPa -
Padavine: 0.3 in /  7.62 mm    
Historical Graphs
 
 
Tabelarni podarki za Januar 30, 2018
Čas Temperatura Točka rosišča Zračni tlak Veter Hitrost vetra Sunki vetra Vlažnost Intenziteta padavin (urna)
TemperatureC °F /  -17.8 °C DewpointC °F /  -17.8 °C PressurehPa in /  0 hPa Calm     Humidity % HourlyPrecipMM in /  0 mm
00:01 -0.9 °F /  -18.3 °C -2.2 °F /  -19 °C 1022.9 in /  34635.4 hPa Calm     91 % 0.0 in /  0 mm
00:06 -0.8 °F /  -18.2 °C -2.1 °F /  -18.9 °C 1022.9 in /  34635.4 hPa Calm     91 % 0.0 in /  0 mm
00:11 -0.8 °F /  -18.2 °C -2.1 °F /  -18.9 °C 1021.9 in /  34601.5 hPa Calm     91 % 0.0 in /  0 mm
00:16 -0.8 °F /  -18.2 °C -2.1 °F /  -18.9 °C 1021.9 in /  34601.5 hPa Calm     91 % 0.0 in /  0 mm
00:21 -0.9 °F /  -18.3 °C -2.2 °F /  -19 °C 1021.9 in /  34601.5 hPa Calm     91 % 0.0 in /  0 mm
00:23 -0.9 °F /  -18.3 °C -2.2 °F /  -19 °C 1021.9 in /  34601.5 hPa Calm     91 % 0.0 in /  0 mm
00:28 -0.9 °F /  -18.3 °C -2.2 °F /  -19 °C 1021.9 in /  34601.5 hPa Calm     91 % 0.0 in /  0 mm
00:33 -0.9 °F /  -18.3 °C -2.2 °F /  -19 °C 1021.9 in /  34601.5 hPa Calm     91 % 0.0 in /  0 mm
00:38 -0.9 °F /  -18.3 °C -2.2 °F /  -19 °C 1021.9 in /  34601.5 hPa Calm     91 % 0.0 in /  0 mm
00:43 -0.7 °F /  -18.2 °C -2.0 °F /  -18.9 °C 1021.9 in /  34601.5 hPa West 0.3 mph /  0.5 km/h 5.0 mph /  8 km/h 91 % 0.0 in /  0 mm
00:48 -0.7 °F /  -18.2 °C -1.8 °F /  -18.8 °C 1021.9 in /  34601.5 hPa NW 1.1 mph /  1.8 km/h 5.0 mph /  8 km/h 92 % 0.0 in /  0 mm
00:53 -0.6 °F /  -18.1 °C -1.7 °F /  -18.7 °C 1021.9 in /  34601.5 hPa NNW 1.1 mph /  1.8 km/h 5.8 mph /  9.3 km/h 92 % 0.0 in /  0 mm
00:58 -0.6 °F /  -18.1 °C -1.7 °F /  -18.7 °C 1020.9 in /  34567.7 hPa NNW 0.6 mph /  1 km/h 5.8 mph /  9.3 km/h 92 % 0.0 in /  0 mm
01:03 -0.6 °F /  -18.1 °C -1.7 °F /  -18.7 °C 1020.9 in /  34567.7 hPa NNW 0.6 mph /  1 km/h 3.2 mph /  5.1 km/h 92 % 0.0 in /  0 mm
01:08 -0.5 °F /  -18.1 °C -1.7 °F /  -18.7 °C 1020.9 in /  34567.7 hPa NNW 0.3 mph /  0.5 km/h 2.6 mph /  4.2 km/h 92 % 0.0 in /  0 mm
01:13 -0.5 °F /  -18.1 °C -1.7 °F /  -18.7 °C 1020.9 in /  34567.7 hPa Calm     92 % 0.0 in /  0 mm
01:18 -0.5 °F /  -18.1 °C -1.7 °F /  -18.7 °C 1020.9 in /  34567.7 hPa Calm     92 % 0.0 in /  0 mm
01:23 -0.5 °F /  -18.1 °C -1.7 °F /  -18.7 °C 1020.9 in /  34567.7 hPa Calm     92 % 0.0 in /  0 mm
01:28 -0.6 °F /  -18.1 °C -1.7 °F /  -18.7 °C 1020.9 in /  34567.7 hPa Calm     92 % 0.0 in /  0 mm
01:33 -0.7 °F /  -18.2 °C -1.8 °F /  -18.8 °C 1020.9 in /  34567.7 hPa Calm     92 % 0.0 in /  0 mm
01:38 -0.7 °F /  -18.2 °C -1.8 °F /  -18.8 °C 1020.9 in /  34567.7 hPa Calm     92 % 0.0 in /  0 mm
01:43 -0.8 °F /  -18.2 °C -1.9 °F /  -18.8 °C 1020.9 in /  34567.7 hPa Calm     92 % 0.0 in /  0 mm
01:48 -0.9 °F /  -18.3 °C -2.1 °F /  -18.9 °C 1020.9 in /  34567.7 hPa Calm     92 % 0.0 in /  0 mm
01:53 -0.9 °F /  -18.3 °C -2.1 °F /  -18.9 °C 1020.9 in /  34567.7 hPa Calm     92 % 0.0 in /  0 mm
01:58 -0.9 °F /  -18.3 °C -2.1 °F /  -18.9 °C 1021.9 in /  34601.5 hPa Calm     92 % 0.0 in /  0 mm
02:03 -0.9 °F /  -18.3 °C -2.1 °F /  -18.9 °C 1021.9 in /  34601.5 hPa Calm     92 % 0.0 in /  0 mm
02:08 -0.9 °F /  -18.3 °C -2.1 °F /  -18.9 °C 1021.9 in /  34601.5 hPa Calm     92 % 0.0 in /  0 mm
02:13 -0.9 °F /  -18.3 °C -1.9 °F /  -18.8 °C 1021.9 in /  34601.5 hPa Calm     93 % 0.0 in /  0 mm
02:18 -0.9 °F /  -18.3 °C -1.9 °F /  -18.8 °C 1021.9 in /  34601.5 hPa Calm     93 % 0.0 in /  0 mm
02:23 -0.9 °F /  -18.3 °C -1.9 °F /  -18.8 °C 1021.9 in /  34601.5 hPa Calm     93 % 0.0 in /  0 mm
02:28 -0.9 °F /  -18.3 °C -1.9 °F /  -18.8 °C 1021.9 in /  34601.5 hPa WSW 0.8 mph /  1.3 km/h 4.3 mph /  6.9 km/h 93 % 0.0 in /  0 mm
02:33 -0.9 °F /  -18.3 °C -1.9 °F /  -18.8 °C 1021.9 in /  34601.5 hPa WNW 2.1 mph /  3.4 km/h 4.3 mph /  6.9 km/h 93 % 0.0 in /  0 mm
02:38 -0.7 °F /  -18.2 °C -1.7 °F /  -18.7 °C 1021.9 in /  34601.5 hPa NNW 2.6 mph /  4.2 km/h 4.3 mph /  6.9 km/h 93 % 0.0 in /  0 mm
02:43 -0.6 °F /  -18.1 °C -1.6 °F /  -18.7 °C 1022.9 in /  34635.4 hPa NNW 2.1 mph /  3.4 km/h 4.3 mph /  6.9 km/h 93 % 0.0 in /  0 mm
02:48 -0.6 °F /  -18.1 °C -1.6 °F /  -18.7 °C 1022.9 in /  34635.4 hPa NW 1.0 mph /  1.6 km/h 4.3 mph /  6.9 km/h 93 % 0.0 in /  0 mm
02:53 -0.5 °F /  -18.1 °C -1.5 °F /  -18.6 °C 1022.9 in /  34635.4 hPa WNW 0.3 mph /  0.5 km/h 2.6 mph /  4.2 km/h 93 % 0.0 in /  0 mm
02:58 -0.5 °F /  -18.1 °C -1.5 °F /  -18.6 °C 1021.9 in /  34601.5 hPa WNW 1.4 mph /  2.3 km/h 4.3 mph /  6.9 km/h 93 % 0.0 in /  0 mm
03:03 -0.5 °F /  -18.1 °C -1.5 °F /  -18.6 °C 1021.9 in /  34601.5 hPa WNW 1.6 mph /  2.6 km/h 4.3 mph /  6.9 km/h 93 % 0.0 in /  0 mm
03:08 -0.4 °F /  -18 °C -1.4 °F /  -18.6 °C 1021.9 in /  34601.5 hPa WNW 1.6 mph /  2.6 km/h 4.3 mph /  6.9 km/h 93 % 0.0 in /  0 mm
03:13 -0.3 °F /  -17.9 °C -1.2 °F /  -18.4 °C 1021.9 in /  34601.5 hPa WNW 2.6 mph /  4.2 km/h 5.5 mph /  8.9 km/h 94 % 0.0 in /  0 mm
03:18 -0.3 °F /  -17.9 °C -1.2 °F /  -18.4 °C 1021.9 in /  34601.5 hPa South 2.4 mph /  3.9 km/h 5.5 mph /  8.9 km/h 94 % 0.0 in /  0 mm
03:24 -0.3 °F /  -17.9 °C -1.2 °F /  -18.4 °C 1021.9 in /  34601.5 hPa WSW 2.1 mph /  3.4 km/h 5.0 mph /  8 km/h 94 % 0.0 in /  0 mm
03:28 -0.3 °F /  -17.9 °C -1.2 °F /  -18.4 °C 1022.9 in /  34635.4 hPa WSW 1.0 mph /  1.6 km/h 4.7 mph /  7.6 km/h 94 % 0.0 in /  0 mm
03:34 -0.4 °F /  -18 °C -1.2 °F /  -18.4 °C 1022.9 in /  34635.4 hPa WNW 0.5 mph /  0.8 km/h 4.0 mph /  6.4 km/h 94 % 0.0 in /  0 mm
03:39 -0.4 °F /  -18 °C -1.2 °F /  -18.4 °C 1022.9 in /  34635.4 hPa NW 0.3 mph /  0.5 km/h 4.0 mph /  6.4 km/h 94 % 0.0 in /  0 mm
03:44 -0.4 °F /  -18 °C -1.2 °F /  -18.4 °C 1022.9 in /  34635.4 hPa Calm   1.4 mph /  2.3 km/h 94 % 0.0 in /  0 mm
03:49 -0.5 °F /  -18.1 °C -1.3 °F /  -18.5 °C 1022.9 in /  34635.4 hPa Calm   3.2 mph /  5.1 km/h 94 % 0.0 in /  0 mm
03:54 -0.6 °F /  -18.1 °C -1.4 °F /  -18.6 °C 1022.9 in /  34635.4 hPa NW 0.6 mph /  1 km/h 4.0 mph /  6.4 km/h 94 % 0.0 in /  0 mm
03:59 -0.7 °F /  -18.2 °C -1.6 °F /  -18.7 °C 1021.9 in /  34601.5 hPa NW 1.1 mph /  1.8 km/h 4.0 mph /  6.4 km/h 94 % 0.0 in /  0 mm
04:04 -0.7 °F /  -18.2 °C -1.6 °F /  -18.7 °C 1021.9 in /  34601.5 hPa SSW 1.0 mph /  1.6 km/h 3.2 mph /  5.1 km/h 94 % 0.0 in /  0 mm
04:08 -0.6 °F /  -18.1 °C -1.4 °F /  -18.6 °C 1021.9 in /  34601.5 hPa SW 1.1 mph /  1.8 km/h 3.5 mph /  5.6 km/h 94 % 0.0 in /  0 mm
04:14 -0.6 °F /  -18.1 °C -1.4 °F /  -18.6 °C 1021.9 in /  34601.5 hPa WSW 1.0 mph /  1.6 km/h 3.5 mph /  5.6 km/h 94 % 0.0 in /  0 mm
04:18 -0.6 °F /  -18.1 °C -1.4 °F /  -18.6 °C 1021.9 in /  34601.5 hPa WSW 1.6 mph /  2.6 km/h 5.5 mph /  8.9 km/h 94 % 0.0 in /  0 mm
04:24 -0.7 °F /  -18.2 °C -1.6 °F /  -18.7 °C 1021.9 in /  34601.5 hPa SW 1.4 mph /  2.3 km/h 5.5 mph /  8.9 km/h 94 % 0.0 in /  0 mm
04:28 -0.7 °F /  -18.2 °C -1.6 °F /  -18.7 °C 1021.9 in /  34601.5 hPa ENE 0.3 mph /  0.5 km/h 3.5 mph /  5.6 km/h 94 % 0.0 in /  0 mm
04:34 -0.7 °F /  -18.2 °C -1.6 °F /  -18.7 °C 1021.9 in /  34601.5 hPa West 1.0 mph /  1.6 km/h 4.3 mph /  6.9 km/h 94 % 0.0 in /  0 mm
04:38 -0.8 °F /  -18.2 °C -1.7 °F /  -18.7 °C 1021.9 in /  34601.5 hPa West 1.3 mph /  2.1 km/h 4.3 mph /  6.9 km/h 94 % 0.0 in /  0 mm
04:44 -0.7 °F /  -18.2 °C -1.6 °F /  -18.7 °C 1021.9 in /  34601.5 hPa NNW 1.4 mph /  2.3 km/h 5.0 mph /  8 km/h 94 % 0.0 in /  0 mm
04:48 -0.6 °F /  -18.1 °C -1.4 °F /  -18.6 °C 1021.9 in /  34601.5 hPa NNW 1.8 mph /  2.9 km/h 5.0 mph /  8 km/h 94 % 0.0 in /  0 mm
04:54 -0.6 °F /  -18.1 °C -1.4 °F /  -18.6 °C 1021.9 in /  34601.5 hPa NNW 0.5 mph /  0.8 km/h 4.0 mph /  6.4 km/h 94 % 0.0 in /  0 mm
04:59 -0.5 °F /  -18.1 °C -1.3 °F /  -18.5 °C 1022.9 in /  34635.4 hPa WSW 0.5 mph /  0.8 km/h 4.0 mph /  6.4 km/h 94 % 0.0 in /  0 mm
05:04 -0.5 °F /  -18.1 °C -1.3 °F /  -18.5 °C 1022.9 in /  34635.4 hPa WSW 0.8 mph /  1.3 km/h 4.0 mph /  6.4 km/h 94 % 0.0 in /  0 mm
05:08 -0.5 °F /  -18.1 °C -1.3 °F /  -18.5 °C 1022.9 in /  34635.4 hPa SW 0.8 mph /  1.3 km/h 4.0 mph /  6.4 km/h 94 % 0.0 in /  0 mm
05:14 -0.6 °F /  -18.1 °C -1.4 °F /  -18.6 °C 1022.9 in /  34635.4 hPa West 0.6 mph /  1 km/h 3.5 mph /  5.6 km/h 94 % 0.0 in /  0 mm
05:19 -0.6 °F /  -18.1 °C -1.4 °F /  -18.6 °C 1022.9 in /  34635.4 hPa NNW 1.3 mph /  2.1 km/h 4.7 mph /  7.6 km/h 94 % 0.0 in /  0 mm
05:23 -0.5 °F /  -18.1 °C -1.3 °F /  -18.5 °C 1022.9 in /  34635.4 hPa NW 1.9 mph /  3.1 km/h 4.7 mph /  7.6 km/h 94 % 0.0 in /  0 mm
05:29 -0.5 °F /  -18.1 °C -1.3 °F /  -18.5 °C 1022.9 in /  34635.4 hPa WNW 1.4 mph /  2.3 km/h 4.7 mph /  7.6 km/h 94 % 0.0 in /  0 mm
05:33 -0.4 °F /  -18 °C -1.1 °F /  -18.4 °C 1022.9 in /  34635.4 hPa WSW 2.9 mph /  4.7 km/h 6.1 mph /  9.8 km/h 95 % 0.0 in /  0 mm
05:39 -0.2 °F /  -17.9 °C -0.9 °F /  -18.3 °C 1022.9 in /  34635.4 hPa WSW 3.7 mph /  6 km/h 6.1 mph /  9.8 km/h 95 % 0.0 in /  0 mm
05:44 -0.3 °F /  -17.9 °C -1.0 °F /  -18.3 °C 1022.9 in /  34635.4 hPa West 2.1 mph /  3.4 km/h 5.5 mph /  8.9 km/h 95 % 0.0 in /  0 mm
05:49 -0.3 °F /  -17.9 °C -1.0 °F /  -18.3 °C 1022.9 in /  34635.4 hPa NNW 0.6 mph /  1 km/h 3.5 mph /  5.6 km/h 95 % 0.0 in /  0 mm
05:53 -0.3 °F /  -17.9 °C -1.0 °F /  -18.3 °C 1022.9 in /  34635.4 hPa Calm     95 % 0.0 in /  0 mm
05:59 -0.3 °F /  -17.9 °C -1.0 °F /  -18.3 °C 1022.9 in /  34635.4 hPa Calm     95 % 0.0 in /  0 mm
06:04 -0.4 °F /  -18 °C -1.1 °F /  -18.4 °C 1022.9 in /  34635.4 hPa Calm     95 % 0.0 in /  0 mm
06:09 -0.4 °F /  -18 °C -1.1 °F /  -18.4 °C 1022.9 in /  34635.4 hPa Calm     95 % 0.0 in /  0 mm
06:14 -0.4 °F /  -18 °C -1.1 °F /  -18.4 °C 1022.9 in /  34635.4 hPa Calm     95 % 0.0 in /  0 mm
06:19 -0.4 °F /  -18 °C -1.1 °F /  -18.4 °C 1022.9 in /  34635.4 hPa Calm     95 % 0.0 in /  0 mm
06:24 -0.3 °F /  -17.9 °C -1.0 °F /  -18.3 °C 1022.9 in /  34635.4 hPa West 0.3 mph /  0.5 km/h 4.0 mph /  6.4 km/h 95 % 0.0 in /  0 mm
06:28 -0.3 °F /  -17.9 °C -1.0 °F /  -18.3 °C 1023.9 in /  34669.3 hPa West 1.1 mph /  1.8 km/h 4.0 mph /  6.4 km/h 95 % 0.0 in /  0 mm
06:34 -0.3 °F /  -17.9 °C -1.0 °F /  -18.3 °C 1023.9 in /  34669.3 hPa WNW 1.6 mph /  2.6 km/h 4.0 mph /  6.4 km/h 95 % 0.0 in /  0 mm
06:39 -0.4 °F /  -18 °C -1.1 °F /  -18.4 °C 1023.9 in /  34669.3 hPa NNW 0.6 mph /  1 km/h 4.0 mph /  6.4 km/h 95 % 0.0 in /  0 mm
06:44 -0.4 °F /  -18 °C -1.1 °F /  -18.4 °C 1023.9 in /  34669.3 hPa Calm     95 % 0.0 in /  0 mm
06:49 -0.3 °F /  -17.9 °C -1.0 °F /  -18.3 °C 1023.9 in /  34669.3 hPa Calm     95 % 0.0 in /  0 mm
06:53 -0.3 °F /  -17.9 °C -1.0 °F /  -18.3 °C 1023.9 in /  34669.3 hPa Calm     95 % 0.0 in /  0 mm
06:59 -0.4 °F /  -18 °C -1.1 °F /  -18.4 °C 1024.9 in /  34703.1 hPa Calm     95 % 0.0 in /  0 mm
07:03 -0.5 °F /  -18.1 °C -1.2 °F /  -18.4 °C 1024.9 in /  34703.1 hPa Calm     95 % 0.0 in /  0 mm
07:09 -0.5 °F /  -18.1 °C -1.2 °F /  -18.4 °C 1024.9 in /  34703.1 hPa Calm     95 % 0.0 in /  0 mm
07:14 -0.5 °F /  -18.1 °C -1.2 °F /  -18.4 °C 1024.9 in /  34703.1 hPa Calm     95 % 0.0 in /  0 mm
07:19 -0.6 °F /  -18.1 °C -1.3 °F /  -18.5 °C 1024.9 in /  34703.1 hPa Calm     95 % 0.0 in /  0 mm
07:24 -0.6 °F /  -18.1 °C -1.3 °F /  -18.5 °C 1024.9 in /  34703.1 hPa NNW 0.2 mph /  0.3 km/h 2.1 mph /  3.4 km/h 95 % 0.0 in /  0 mm
07:29 -0.7 °F /  -18.2 °C -1.4 °F /  -18.6 °C 1024.9 in /  34703.1 hPa NNW 0.2 mph /  0.3 km/h 2.1 mph /  3.4 km/h 95 % 0.0 in /  0 mm
07:34 -0.8 °F /  -18.2 °C -1.5 °F /  -18.6 °C 1024.9 in /  34703.1 hPa Calm     95 % 0.0 in /  0 mm
07:39 -0.8 °F /  -18.2 °C -1.5 °F /  -18.6 °C 1024.9 in /  34703.1 hPa Calm   2.1 mph /  3.4 km/h 95 % 0.0 in /  0 mm
07:44 -0.8 °F /  -18.2 °C -1.5 °F /  -18.6 °C 1024.9 in /  34703.1 hPa Calm   2.1 mph /  3.4 km/h 95 % 0.0 in /  0 mm
07:49 -0.8 °F /  -18.2 °C -1.5 °F /  -18.6 °C 1024.9 in /  34703.1 hPa Calm     95 % 0.0 in /  0 mm
07:54 -0.8 °F /  -18.2 °C -1.5 °F /  -18.6 °C 1024.9 in /  34703.1 hPa Calm     95 % 0.0 in /  0 mm
07:59 -0.9 °F /  -18.3 °C -1.6 °F /  -18.7 °C 1024.9 in /  34703.1 hPa Calm     95 % 0.0 in /  0 mm
08:04 -0.8 °F /  -18.2 °C -1.5 °F /  -18.6 °C 1024.9 in /  34703.1 hPa Calm     95 % 0.0 in /  0 mm
08:09 -0.9 °F /  -18.3 °C -1.6 °F /  -18.7 °C 1024.9 in /  34703.1 hPa Calm     95 % 0.0 in /  0 mm
08:14 -0.8 °F /  -18.2 °C -1.5 °F /  -18.6 °C 1024.9 in /  34703.1 hPa Calm     95 % 0.0 in /  0 mm
08:19 -0.8 °F /  -18.2 °C -1.5 °F /  -18.6 °C 1024.9 in /  34703.1 hPa Calm     95 % 0.0 in /  0 mm
08:24 -0.7 °F /  -18.2 °C -1.4 °F /  -18.6 °C 1024.9 in /  34703.1 hPa Calm     95 % 0.0 in /  0 mm
08:29 -0.5 °F /  -18.1 °C -1.2 °F /  -18.4 °C 1024.9 in /  34703.1 hPa Calm     95 % 0.0 in /  0 mm
08:34 -0.4 °F /  -18 °C -1.1 °F /  -18.4 °C 1024.9 in /  34703.1 hPa Calm     95 % 0.0 in /  0 mm
08:39 -0.2 °F /  -17.9 °C -0.8 °F /  -18.2 °C 1024.9 in /  34703.1 hPa Calm     96 % 0.0 in /  0 mm
08:44 0.0 °F /  -17.8 °C -0.6 °F /  -18.1 °C 1024.9 in /  34703.1 hPa Calm     96 % 0.0 in /  0 mm
08:49 0.1 °F /  -17.7 °C -0.4 °F /  -18 °C 1024.9 in /  34703.1 hPa Calm   2.6 mph /  4.2 km/h 96 % 0.0 in /  0 mm
08:54 0.4 °F /  -17.6 °C -0.2 °F /  -17.9 °C 1024.9 in /  34703.1 hPa SW 1.1 mph /  1.8 km/h 4.3 mph /  6.9 km/h 96 % 0.0 in /  0 mm
08:59 0.7 °F /  -17.4 °C 0.1 °F /  -17.7 °C 1026.0 in /  34740.4 hPa SW 1.6 mph /  2.6 km/h 4.3 mph /  6.9 km/h 96 % 0.0 in /  0 mm
09:04 0.9 °F /  -17.3 °C 0.3 °F /  -17.6 °C 1026.0 in /  34740.4 hPa SW 0.5 mph /  0.8 km/h 3.5 mph /  5.6 km/h 96 % 0.3 in /  7.62 mm
09:09 1.0 °F /  -17.2 °C 0.4 °F /  -17.6 °C 1026.0 in /  34740.4 hPa Calm     96 % 0.3 in /  7.62 mm
09:14 1.2 °F /  -17.1 °C 0.6 °F /  -17.4 °C 1026.0 in /  34740.4 hPa Calm     96 % 0.3 in /  7.62 mm
09:19 1.5 °F /  -16.9 °C 0.9 °F /  -17.3 °C 1026.0 in /  34740.4 hPa South 0.2 mph /  0.3 km/h 2.1 mph /  3.4 km/h 96 % 0.3 in /  7.62 mm
09:24 1.7 °F /  -16.8 °C 1.3 °F /  -17.1 °C 1026.0 in /  34740.4 hPa South 0.2 mph /  0.3 km/h 2.1 mph /  3.4 km/h 97 % 0.3 in /  7.62 mm
09:29 1.9 °F /  -16.7 °C 1.5 °F /  -16.9 °C 1027.0 in /  34774.2 hPa Calm     97 % 0.3 in /  7.62 mm
09:34 2.1 °F /  -16.6 °C 1.6 °F /  -16.9 °C 1027.0 in /  34774.2 hPa Calm     96 % 0.3 in /  7.62 mm
09:39 2.5 °F /  -16.4 °C 2.1 °F /  -16.6 °C 1027.0 in /  34774.2 hPa Calm     97 % 0.3 in /  7.62 mm
09:44 2.8 °F /  -16.2 °C 2.4 °F /  -16.4 °C 1027.0 in /  34774.2 hPa Calm     97 % 0.3 in /  7.62 mm
09:49 3.0 °F /  -16.1 °C 2.6 °F /  -16.3 °C 1027.0 in /  34774.2 hPa Calm   1.4 mph /  2.3 km/h 97 % 0.3 in /  7.62 mm
09:54 3.4 °F /  -15.9 °C 2.9 °F /  -16.2 °C 1027.0 in /  34774.2 hPa SSW 0.2 mph /  0.3 km/h 2.1 mph /  3.4 km/h 97 % 0.3 in /  7.62 mm
09:59 3.7 °F /  -15.7 °C 3.3 °F /  -15.9 °C 1027.0 in /  34774.2 hPa South 0.5 mph /  0.8 km/h 2.6 mph /  4.2 km/h 97 % 0.3 in /  7.62 mm
10:04 3.9 °F /  -15.6 °C 3.4 °F /  -15.9 °C 1027.0 in /  34774.2 hPa SSE 0.8 mph /  1.3 km/h 3.5 mph /  5.6 km/h 97 % 0.0 in /  0 mm
10:09 4.2 °F /  -15.4 °C 3.8 °F /  -15.7 °C 1027.0 in /  34774.2 hPa SSE 0.5 mph /  0.8 km/h 3.5 mph /  5.6 km/h 97 % 0.0 in /  0 mm
10:14 4.4 °F /  -15.3 °C 3.9 °F /  -15.6 °C 1027.0 in /  34774.2 hPa Calm     97 % 0.0 in /  0 mm
10:19 4.7 °F /  -15.2 °C 4.3 °F /  -15.4 °C 1027.0 in /  34774.2 hPa Calm     97 % 0.0 in /  0 mm
10:24 4.9 °F /  -15.1 °C 4.4 °F /  -15.3 °C 1027.0 in /  34774.2 hPa SE 0.2 mph /  0.3 km/h 5.0 mph /  8 km/h 97 % 0.0 in /  0 mm
10:29 5.4 °F /  -14.8 °C 4.9 °F /  -15.1 °C 1026.0 in /  34740.4 hPa SE 2.4 mph /  3.9 km/h 6.1 mph /  9.8 km/h 97 % 0.0 in /  0 mm
10:34 5.8 °F /  -14.6 °C 5.3 °F /  -14.8 °C 1026.0 in /  34740.4 hPa SE 4.5 mph /  7.2 km/h 7.6 mph /  12.2 km/h 97 % 0.0 in /  0 mm
10:39 6.2 °F /  -14.3 °C 5.8 °F /  -14.6 °C 1026.0 in /  34740.4 hPa SE 5.1 mph /  8.2 km/h 7.6 mph /  12.2 km/h 97 % 0.0 in /  0 mm
10:44 6.7 °F /  -14.1 °C 6.3 °F /  -14.3 °C 1027.0 in /  34774.2 hPa South 5.8 mph /  9.3 km/h 9.3 mph /  15 km/h 97 % 0.0 in /  0 mm
10:49 7.2 °F /  -13.8 °C 6.8 °F /  -14 °C 1027.0 in /  34774.2 hPa South 6.0 mph /  9.7 km/h 10.1 mph /  16.3 km/h 97 % 0.0 in /  0 mm
10:54 7.6 °F /  -13.6 °C 7.2 °F /  -13.8 °C 1027.0 in /  34774.2 hPa SSW 6.1 mph /  9.8 km/h 10.1 mph /  16.3 km/h 97 % 0.0 in /  0 mm
10:59 8.0 °F /  -13.3 °C 7.6 °F /  -13.6 °C 1027.0 in /  34774.2 hPa SSW 6.1 mph /  9.8 km/h 9.7 mph /  15.6 km/h 97 % 0.0 in /  0 mm
11:04 8.3 °F /  -13.2 °C 7.8 °F /  -13.4 °C 1027.0 in /  34774.2 hPa SSW 5.8 mph /  9.3 km/h 9.0 mph /  14.5 km/h 97 % 0.0 in /  0 mm
11:09 8.5 °F /  -13.1 °C 8.1 °F /  -13.3 °C 1027.0 in /  34774.2 hPa SSW 5.3 mph /  8.5 km/h 9.0 mph /  14.5 km/h 97 % 0.0 in /  0 mm
11:14 8.7 °F /  -12.9 °C 8.3 °F /  -13.2 °C 1026.0 in /  34740.4 hPa SSW 5.0 mph /  8 km/h 9.0 mph /  14.5 km/h 97 % 0.0 in /  0 mm
11:19 8.9 °F /  -12.8 °C 8.4 °F /  -13.1 °C 1026.0 in /  34740.4 hPa SSW 5.6 mph /  9 km/h 10.5 mph /  16.9 km/h 97 % 0.0 in /  0 mm
11:24 9.2 °F /  -12.7 °C 8.6 °F /  -13 °C 1026.0 in /  34740.4 hPa SSW 6.4 mph /  10.3 km/h 10.5 mph /  16.9 km/h 96 % 0.0 in /  0 mm
11:29 9.8 °F /  -12.3 °C 9.3 °F /  -12.6 °C 1027.0 in /  34774.2 hPa SSW 5.8 mph /  9.3 km/h 9.0 mph /  14.5 km/h 97 % 0.0 in /  0 mm
11:34 10.1 °F /  -12.2 °C 9.5 °F /  -12.5 °C 1027.0 in /  34774.2 hPa SSW 5.3 mph /  8.5 km/h 8.7 mph /  14 km/h 96 % 0.0 in /  0 mm
11:39 10.4 °F /  -12 °C 9.8 °F /  -12.3 °C 1027.0 in /  34774.2 hPa SSW 5.5 mph /  8.9 km/h 9.7 mph /  15.6 km/h 96 % 0.0 in /  0 mm
11:44 10.7 °F /  -11.8 °C 10.1 °F /  -12.2 °C 1026.0 in /  34740.4 hPa SSW 6.4 mph /  10.3 km/h 10.5 mph /  16.9 km/h 96 % 0.0 in /  0 mm
11:49 10.9 °F /  -11.7 °C 10.3 °F /  -12.1 °C 1026.0 in /  34740.4 hPa SSW 6.9 mph /  11.1 km/h 10.5 mph /  16.9 km/h 96 % 0.0 in /  0 mm
11:54 11.0 °F /  -11.7 °C 10.2 °F /  -12.1 °C 1026.0 in /  34740.4 hPa SW 6.6 mph /  10.6 km/h 9.7 mph /  15.6 km/h 95 % 0.0 in /  0 mm
11:59 11.3 °F /  -11.5 °C 10.4 °F /  -12 °C 1026.0 in /  34740.4 hPa SW 5.8 mph /  9.3 km/h 9.3 mph /  15 km/h 94 % 0.0 in /  0 mm
12:04 11.6 °F /  -11.3 °C 10.5 °F /  -11.9 °C 1026.0 in /  34740.4 hPa SSW 5.6 mph /  9 km/h 9.0 mph /  14.5 km/h 93 % 0.0 in /  0 mm
12:09 11.7 °F /  -11.3 °C 10.6 °F /  -11.9 °C 1026.0 in /  34740.4 hPa SSW 7.4 mph /  11.9 km/h 12.6 mph /  20.3 km/h 93 % 0.0 in /  0 mm
12:14 11.9 °F /  -11.2 °C 10.5 °F /  -11.9 °C 1024.9 in /  34703.1 hPa SSW 8.4 mph /  13.5 km/h 12.6 mph /  20.3 km/h 91 % 0.0 in /  0 mm
12:19 12.0 °F /  -11.1 °C 10.2 °F /  -12.1 °C 1024.9 in /  34703.1 hPa SSW 7.4 mph /  11.9 km/h 10.8 mph /  17.4 km/h 89 % 0.0 in /  0 mm
12:24 12.3 °F /  -10.9 °C 10.2 °F /  -12.1 °C 1024.9 in /  34703.1 hPa SSW 6.8 mph /  10.9 km/h 10.1 mph /  16.3 km/h 87 % 0.0 in /  0 mm
12:29 12.5 °F /  -10.8 °C 10.1 °F /  -12.2 °C 1024.9 in /  34703.1 hPa SSW 6.1 mph /  9.8 km/h 10.1 mph /  16.3 km/h 85 % 0.0 in /  0 mm
12:34 12.6 °F /  -10.8 °C 9.9 °F /  -12.3 °C 1024.9 in /  34703.1 hPa SW 5.1 mph /  8.2 km/h 8.7 mph /  14 km/h 84 % 0.0 in /  0 mm
12:39 12.7 °F /  -10.7 °C 9.7 °F /  -12.4 °C 1024.9 in /  34703.1 hPa SSW 4.3 mph /  6.9 km/h 7.2 mph /  11.6 km/h 82 % 0.0 in /  0 mm
12:44 12.9 °F /  -10.6 °C 9.7 °F /  -12.4 °C 1026.0 in /  34740.4 hPa SSW 4.5 mph /  7.2 km/h 7.9 mph /  12.7 km/h 81 % 0.0 in /  0 mm
12:49 13.2 °F /  -10.4 °C 9.6 °F /  -12.4 °C 1026.0 in /  34740.4 hPa SSW 5.0 mph /  8 km/h 7.9 mph /  12.7 km/h 79 % 0.0 in /  0 mm
12:54 13.3 °F /  -10.4 °C 9.3 °F /  -12.6 °C 1026.0 in /  34740.4 hPa SSW 5.1 mph /  8.2 km/h 9.0 mph /  14.5 km/h 77 % 0.0 in /  0 mm
12:59 13.4 °F /  -10.3 °C 9.1 °F /  -12.7 °C 1024.9 in /  34703.1 hPa SSW 5.6 mph /  9 km/h 11.9 mph /  19.2 km/h 75 % 0.0 in /  0 mm
13:04 13.4 °F /  -10.3 °C 8.8 °F /  -12.9 °C 1024.9 in /  34703.1 hPa SSW 6.3 mph /  10.1 km/h 11.9 mph /  19.2 km/h 74 % 0.0 in /  0 mm
13:09 13.4 °F /  -10.3 °C 8.7 °F /  -12.9 °C 1024.9 in /  34703.1 hPa SSW 6.3 mph /  10.1 km/h 9.7 mph /  15.6 km/h 73 % 0.0 in /  0 mm
13:14 13.5 °F /  -10.3 °C 8.3 °F /  -13.2 °C 1023.9 in /  34669.3 hPa SSW 5.8 mph /  9.3 km/h 9.7 mph /  15.6 km/h 71 % 0.0 in /  0 mm
13:19 13.5 °F /  -10.3 °C 8.1 °F /  -13.3 °C 1023.9 in /  34669.3 hPa SSW 5.5 mph /  8.9 km/h 9.7 mph /  15.6 km/h 70 % 0.0 in /  0 mm
13:24 13.4 °F /  -10.3 °C 7.6 °F /  -13.6 °C 1023.9 in /  34669.3 hPa South 5.0 mph /  8 km/h 9.7 mph /  15.6 km/h 68 % 0.0 in /  0 mm
13:29 13.5 °F /  -10.3 °C 7.5 °F /  -13.6 °C 1026.0 in /  34740.4 hPa SSW 3.9 mph /  6.3 km/h 8.7 mph /  14 km/h 67 % 0.0 in /  0 mm
13:34 13.5 °F /  -10.3 °C 7.3 °F /  -13.7 °C 1026.0 in /  34740.4 hPa SW 3.2 mph /  5.1 km/h 7.9 mph /  12.7 km/h 66 % 0.0 in /  0 mm
13:39 13.5 °F /  -10.3 °C 7.3 °F /  -13.7 °C 1026.0 in /  34740.4 hPa SSW 4.0 mph /  6.4 km/h 7.9 mph /  12.7 km/h 66 % 0.0 in /  0 mm
13:44 13.4 °F /  -10.3 °C 6.9 °F /  -13.9 °C 1024.9 in /  34703.1 hPa SSW 3.4 mph /  5.5 km/h 7.9 mph /  12.7 km/h 65 % 0.0 in /  0 mm
13:49 13.4 °F /  -10.3 °C 6.7 °F /  -14.1 °C 1024.9 in /  34703.1 hPa SSW 2.3 mph /  3.7 km/h 4.7 mph /  7.6 km/h 64 % 0.0 in /  0 mm
13:54 13.5 °F /  -10.3 °C 6.8 °F /  -14 °C 1024.9 in /  34703.1 hPa South 2.4 mph /  3.9 km/h 4.7 mph /  7.6 km/h 64 % 0.0 in /  0 mm
13:59 13.5 °F /  -10.3 °C 6.6 °F /  -14.1 °C 1024.9 in /  34703.1 hPa SSW 1.6 mph /  2.6 km/h 5.0 mph /  8 km/h 63 % 0.0 in /  0 mm
14:04 13.5 °F /  -10.3 °C 6.6 °F /  -14.1 °C 1024.9 in /  34703.1 hPa WSW 3.2 mph /  5.1 km/h 7.9 mph /  12.7 km/h 63 % 0.0 in /  0 mm
14:09 13.5 °F /  -10.3 °C 6.3 °F /  -14.3 °C 1024.9 in /  34703.1 hPa SW 4.8 mph /  7.7 km/h 7.9 mph /  12.7 km/h 62 % 0.0 in /  0 mm
14:14 13.6 °F /  -10.2 °C 6.4 °F /  -14.2 °C 1024.9 in /  34703.1 hPa South 3.5 mph /  5.6 km/h 6.4 mph /  10.3 km/h 62 % 0.0 in /  0 mm
14:19 13.5 °F /  -10.3 °C 6.1 °F /  -14.4 °C 1024.9 in /  34703.1 hPa SE 3.2 mph /  5.1 km/h 6.9 mph /  11.1 km/h 61 % 0.0 in /  0 mm
14:24 13.4 °F /  -10.3 °C 5.8 °F /  -14.6 °C 1024.9 in /  34703.1 hPa ESE 4.0 mph /  6.4 km/h 8.7 mph /  14 km/h 60 % 0.0 in /  0 mm
14:29 13.4 °F /  -10.3 °C 5.6 °F /  -14.7 °C 1023.9 in /  34669.3 hPa SE 3.7 mph /  6 km/h 8.7 mph /  14 km/h 59 % 0.0 in /  0 mm
14:34 13.5 °F /  -10.3 °C 5.6 °F /  -14.7 °C 1023.9 in /  34669.3 hPa SSE 2.7 mph /  4.3 km/h 6.1 mph /  9.8 km/h 59 % 0.0 in /  0 mm
14:35 13.6 °F /  -10.2 °C 5.7 °F /  -14.6 °C 1023.9 in /  34669.3 hPa SSE 2.9 mph /  4.7 km/h 6.4 mph /  10.3 km/h 59 % 0.0 in /  0 mm
14:40 13.5 °F /  -10.3 °C 5.6 °F /  -14.7 °C 1024.9 in /  34703.1 hPa SSE 3.9 mph /  6.3 km/h 6.9 mph /  11.1 km/h 59 % 0.0 in /  0 mm
14:45 13.5 °F /  -10.3 °C 5.6 °F /  -14.7 °C 1024.9 in /  34703.1 hPa SSE 5.1 mph /  8.2 km/h 6.9 mph /  11.1 km/h 59 % 0.0 in /  0 mm
14:50 13.5 °F /  -10.3 °C 5.6 °F /  -14.7 °C 1024.9 in /  34703.1 hPa SSE 5.1 mph /  8.2 km/h 6.9 mph /  11.1 km/h 59 % 0.0 in /  0 mm
14:55 13.5 °F /  -10.3 °C 5.6 °F /  -14.7 °C 1024.9 in /  34703.1 hPa SE 4.5 mph /  7.2 km/h 6.9 mph /  11.1 km/h 59 % 0.0 in /  0 mm
15:00 13.7 °F /  -10.2 °C 5.8 °F /  -14.6 °C 1024.9 in /  34703.1 hPa SSE 3.7 mph /  6 km/h 6.1 mph /  9.8 km/h 59 % 0.0 in /  0 mm
15:05 13.7 °F /  -10.2 °C 5.8 °F /  -14.6 °C 1024.9 in /  34703.1 hPa South 2.6 mph /  4.2 km/h 6.1 mph /  9.8 km/h 59 % 0.0 in /  0 mm
15:10 13.7 °F /  -10.2 °C 5.6 °F /  -14.7 °C 1024.9 in /  34703.1 hPa South 2.1 mph /  3.4 km/h 4.0 mph /  6.4 km/h 58 % 0.0 in /  0 mm
15:15 13.7 °F /  -10.2 °C 5.6 °F /  -14.7 °C 1024.9 in /  34703.1 hPa South 1.9 mph /  3.1 km/h 4.3 mph /  6.9 km/h 58 % 0.0 in /  0 mm
15:20 13.7 °F /  -10.2 °C 5.6 °F /  -14.7 °C 1024.9 in /  34703.1 hPa South 1.6 mph /  2.6 km/h 4.3 mph /  6.9 km/h 58 % 0.0 in /  0 mm
15:25 13.6 °F /  -10.2 °C 5.5 °F /  -14.7 °C 1023.9 in /  34669.3 hPa South 2.3 mph /  3.7 km/h 4.0 mph /  6.4 km/h 58 % 0.0 in /  0 mm
15:30 13.4 °F /  -10.3 °C 5.3 °F /  -14.8 °C 1023.9 in /  34669.3 hPa SSW 2.3 mph /  3.7 km/h 4.0 mph /  6.4 km/h 58 % 0.0 in /  0 mm
15:36 13.0 °F /  -10.6 °C 4.9 °F /  -15.1 °C 1023.9 in /  34669.3 hPa South 1.8 mph /  2.9 km/h 4.0 mph /  6.4 km/h 58 % 0.0 in /  0 mm
15:41 12.4 °F /  -10.9 °C 4.3 °F /  -15.4 °C 1023.9 in /  34669.3 hPa SSW 1.8 mph /  2.9 km/h 4.3 mph /  6.9 km/h 58 % 0.0 in /  0 mm
15:46 12.0 °F /  -11.1 °C 3.7 °F /  -15.7 °C 1023.9 in /  34669.3 hPa SSW 2.1 mph /  3.4 km/h 4.3 mph /  6.9 km/h 57 % 0.0 in /  0 mm
15:51 11.4 °F /  -11.4 °C 3.2 °F /  -16 °C 1023.9 in /  34669.3 hPa SSW 1.9 mph /  3.1 km/h 4.0 mph /  6.4 km/h 57 % 0.0 in /  0 mm
15:56 10.8 °F /  -11.8 °C 2.8 °F /  -16.2 °C 1023.9 in /  34669.3 hPa WNW 1.0 mph /  1.6 km/h 4.0 mph /  6.4 km/h 58 % 0.0 in /  0 mm
16:01 10.4 °F /  -12 °C 2.5 °F /  -16.4 °C 1023.9 in /  34669.3 hPa NW 0.6 mph /  1 km/h 4.0 mph /  6.4 km/h 58 % 0.0 in /  0 mm
16:06 9.9 °F /  -12.3 °C 2.3 °F /  -16.5 °C 1023.9 in /  34669.3 hPa West 1.3 mph /  2.1 km/h 4.0 mph /  6.4 km/h 59 % 0.0 in /  0 mm
16:11 9.4 °F /  -12.6 °C 1.8 °F /  -16.8 °C 1024.9 in /  34703.1 hPa WNW 2.1 mph /  3.4 km/h 5.0 mph /  8 km/h 59 % 0.0 in /  0 mm
16:16 9.2 °F /  -12.7 °C 1.8 °F /  -16.8 °C 1024.9 in /  34703.1 hPa NW 2.3 mph /  3.7 km/h 5.5 mph /  8.9 km/h 60 % 0.0 in /  0 mm
16:21 8.8 °F /  -12.9 °C 1.7 °F /  -16.8 °C 1024.9 in /  34703.1 hPa WNW 1.1 mph /  1.8 km/h 5.5 mph /  8.9 km/h 61 % 0.0 in /  0 mm
16:26 8.4 °F /  -13.1 °C 1.6 °F /  -16.9 °C 1023.9 in /  34669.3 hPa NW 0.5 mph /  0.8 km/h 4.0 mph /  6.4 km/h 62 % 0.0 in /  0 mm
16:31 8.3 °F /  -13.2 °C 1.4 °F /  -17 °C 1023.9 in /  34669.3 hPa WNW 1.4 mph /  2.3 km/h 4.0 mph /  6.4 km/h 62 % 0.0 in /  0 mm
16:36 8.0 °F /  -13.3 °C 1.4 °F /  -17 °C 1023.9 in /  34669.3 hPa WNW 1.6 mph /  2.6 km/h 4.0 mph /  6.4 km/h 63 % 0.0 in /  0 mm
16:41 7.7 °F /  -13.5 °C 1.3 °F /  -17.1 °C 1023.9 in /  34669.3 hPa WNW 0.6 mph /  1 km/h 4.0 mph /  6.4 km/h 64 % 0.0 in /  0 mm
16:46 7.5 °F /  -13.6 °C 1.3 °F /  -17.1 °C 1023.9 in /  34669.3 hPa West 0.5 mph /  0.8 km/h 4.0 mph /  6.4 km/h 65 % 0.0 in /  0 mm
16:51 7.2 °F /  -13.8 °C 1.3 °F /  -17.1 °C 1023.9 in /  34669.3 hPa WNW 1.0 mph /  1.6 km/h 4.0 mph /  6.4 km/h 66 % 0.0 in /  0 mm
16:56 7.0 °F /  -13.9 °C 1.1 °F /  -17.2 °C 1024.9 in /  34703.1 hPa NW 1.4 mph /  2.3 km/h 5.0 mph /  8 km/h 66 % 0.0 in /  0 mm
17:01 6.8 °F /  -14 °C 1.1 °F /  -17.2 °C 1024.9 in /  34703.1 hPa NW 1.3 mph /  2.1 km/h 5.0 mph /  8 km/h 67 % 0.0 in /  0 mm
17:06 6.6 °F /  -14.1 °C 1.1 °F /  -17.2 °C 1024.9 in /  34703.1 hPa NNW 0.5 mph /  0.8 km/h 2.6 mph /  4.2 km/h 68 % 0.0 in /  0 mm
17:11 6.4 °F /  -14.2 °C 0.9 °F /  -17.3 °C 1024.9 in /  34703.1 hPa NW 0.6 mph /  1 km/h 5.0 mph /  8 km/h 68 % 0.0 in /  0 mm
17:16 6.2 °F /  -14.3 °C 0.9 °F /  -17.3 °C 1024.9 in /  34703.1 hPa NW 2.1 mph /  3.4 km/h 5.8 mph /  9.3 km/h 69 % 0.0 in /  0 mm
17:21 6.1 °F /  -14.4 °C 0.8 °F /  -17.3 °C 1024.9 in /  34703.1 hPa WNW 1.8 mph /  2.9 km/h 5.8 mph /  9.3 km/h 69 % 0.0 in /  0 mm
17:26 5.8 °F /  -14.6 °C 0.7 °F /  -17.4 °C 1023.9 in /  34669.3 hPa WNW 0.5 mph /  0.8 km/h 2.6 mph /  4.2 km/h 70 % 0.0 in /  0 mm
17:31 5.6 °F /  -14.7 °C 0.8 °F /  -17.3 °C 1023.9 in /  34669.3 hPa NW 0.2 mph /  0.3 km/h 4.3 mph /  6.9 km/h 71 % 0.0 in /  0 mm
17:36 5.4 °F /  -14.8 °C 0.6 °F /  -17.4 °C 1023.9 in /  34669.3 hPa NW 1.3 mph /  2.1 km/h 4.3 mph /  6.9 km/h 71 % 0.0 in /  0 mm
17:41 5.3 °F /  -14.8 °C 0.4 °F /  -17.6 °C 1024.9 in /  34703.1 hPa WNW 2.6 mph /  4.2 km/h 5.0 mph /  8 km/h 71 % 0.0 in /  0 mm
17:46 5.1 °F /  -14.9 °C 0.4 °F /  -17.6 °C 1024.9 in /  34703.1 hPa WNW 1.6 mph /  2.6 km/h 5.0 mph /  8 km/h 72 % 0.0 in /  0 mm
17:51 4.9 °F /  -15.1 °C 0.3 °F /  -17.6 °C 1024.9 in /  34703.1 hPa WNW 1.0 mph /  1.6 km/h 3.5 mph /  5.6 km/h 72 % 0.0 in /  0 mm
17:56 4.7 °F /  -15.2 °C 0.3 °F /  -17.6 °C 1024.9 in /  34703.1 hPa WNW 0.6 mph /  1 km/h 3.5 mph /  5.6 km/h 73 % 0.0 in /  0 mm
18:01 4.5 °F /  -15.3 °C 0.1 °F /  -17.7 °C 1024.9 in /  34703.1 hPa Calm     73 % 0.0 in /  0 mm
18:06 4.4 °F /  -15.3 °C 0.0 °F /  -17.8 °C 1024.9 in /  34703.1 hPa Calm   4.7 mph /  7.6 km/h 73 % 0.0 in /  0 mm
18:11 4.3 °F /  -15.4 °C 0.1 °F /  -17.7 °C 1024.9 in /  34703.1 hPa WNW 0.6 mph /  1 km/h 4.7 mph /  7.6 km/h 74 % 0.0 in /  0 mm
18:16 4.0 °F /  -15.6 °C -0.2 °F /  -17.9 °C 1024.9 in /  34703.1 hPa NW 0.5 mph /  0.8 km/h 4.0 mph /  6.4 km/h 74 % 0.0 in /  0 mm
18:21 3.8 °F /  -15.7 °C -0.2 °F /  -17.9 °C 1024.9 in /  34703.1 hPa Calm   1.8 mph /  2.9 km/h 75 % 0.0 in /  0 mm
18:26 3.7 °F /  -15.7 °C -0.3 °F /  -17.9 °C 1024.9 in /  34703.1 hPa Calm     75 % 0.0 in /  0 mm
18:31 3.6 °F /  -15.8 °C -0.4 °F /  -18 °C 1024.9 in /  34703.1 hPa Calm     75 % 0.0 in /  0 mm
18:36 3.4 °F /  -15.9 °C -0.6 °F /  -18.1 °C 1024.9 in /  34703.1 hPa Calm     75 % 0.0 in /  0 mm
18:41 3.3 °F /  -15.9 °C -0.7 °F /  -18.2 °C 1024.9 in /  34703.1 hPa Calm     75 % 0.0 in /  0 mm
18:46 3.2 °F /  -16 °C -0.6 °F /  -18.1 °C 1024.9 in /  34703.1 hPa Calm     76 % 0.0 in /  0 mm
18:51 3.1 °F /  -16.1 °C -0.7 °F /  -18.2 °C 1024.9 in /  34703.1 hPa Calm     76 % 0.0 in /  0 mm
18:57 3.0 °F /  -16.1 °C -0.8 °F /  -18.2 °C 1024.9 in /  34703.1 hPa Calm     76 % 0.0 in /  0 mm
19:02 2.9 °F /  -16.2 °C -0.7 °F /  -18.2 °C 1024.9 in /  34703.1 hPa Calm     77 % 0.0 in /  0 mm
19:07 2.8 °F /  -16.2 °C -0.8 °F /  -18.2 °C 1024.9 in /  34703.1 hPa Calm     77 % 0.0 in /  0 mm
19:12 2.7 °F /  -16.3 °C -0.9 °F /  -18.3 °C 1024.9 in /  34703.1 hPa Calm     77 % 0.0 in /  0 mm
19:17 2.6 °F /  -16.3 °C -1.1 °F /  -18.4 °C 1024.9 in /  34703.1 hPa Calm     77 % 0.0 in /  0 mm
19:22 2.4 °F /  -16.4 °C -1.2 °F /  -18.4 °C 1024.9 in /  34703.1 hPa Calm     77 % 0.0 in /  0 mm
19:27 2.4 °F /  -16.4 °C -1.1 °F /  -18.4 °C 1023.9 in /  34669.3 hPa Calm     78 % 0.0 in /  0 mm
19:32 2.3 °F /  -16.5 °C -1.2 °F /  -18.4 °C 1023.9 in /  34669.3 hPa Calm     78 % 0.0 in /  0 mm
19:37 2.2 °F /  -16.6 °C -1.2 °F /  -18.4 °C 1023.9 in /  34669.3 hPa Calm     78 % 0.0 in /  0 mm
19:42 2.1 °F /  -16.6 °C -1.3 °F /  -18.5 °C 1023.9 in /  34669.3 hPa Calm     78 % 0.0 in /  0 mm
19:47 2.0 °F /  -16.7 °C -1.4 °F /  -18.6 °C 1023.9 in /  34669.3 hPa Calm     78 % 0.0 in /  0 mm
19:52 2.0 °F /  -16.7 °C -1.4 °F /  -18.6 °C 1023.9 in /  34669.3 hPa Calm     78 % 0.0 in /  0 mm
19:57 1.9 °F /  -16.7 °C -1.3 °F /  -18.5 °C 1023.9 in /  34669.3 hPa NW 0.5 mph /  0.8 km/h 3.2 mph /  5.1 km/h 79 % 0.0 in /  0 mm
20:02 1.8 °F /  -16.8 °C -1.4 °F /  -18.6 °C 1023.9 in /  34669.3 hPa NW 1.4 mph /  2.3 km/h 4.0 mph /  6.4 km/h 79 % 0.0 in /  0 mm
20:07 1.7 °F /  -16.8 °C -1.6 °F /  -18.7 °C 1023.9 in /  34669.3 hPa WNW 1.6 mph /  2.6 km/h 4.0 mph /  6.4 km/h 79 % 0.0 in /  0 mm
20:12 1.7 °F /  -16.8 °C -1.6 °F /  -18.7 °C 1024.9 in /  34703.1 hPa West 0.6 mph /  1 km/h 3.5 mph /  5.6 km/h 79 % 0.0 in /  0 mm
20:17 1.7 °F /  -16.8 °C -1.6 °F /  -18.7 °C 1024.9 in /  34703.1 hPa West 0.2 mph /  0.3 km/h 2.1 mph /  3.4 km/h 79 % 0.0 in /  0 mm
20:22 1.7 °F /  -16.8 °C -1.4 °F /  -18.6 °C 1024.9 in /  34703.1 hPa NW 0.2 mph /  0.3 km/h 4.0 mph /  6.4 km/h 80 % 0.0 in /  0 mm
20:27 1.6 °F /  -16.9 °C -1.5 °F /  -18.6 °C 1024.9 in /  34703.1 hPa NW 0.5 mph /  0.8 km/h 4.0 mph /  6.4 km/h 80 % 0.0 in /  0 mm
20:32 1.6 °F /  -16.9 °C -1.5 °F /  -18.6 °C 1024.9 in /  34703.1 hPa NW 0.5 mph /  0.8 km/h 3.5 mph /  5.6 km/h 80 % 0.0 in /  0 mm
20:37 1.5 °F /  -16.9 °C -1.6 °F /  -18.7 °C 1024.9 in /  34703.1 hPa NW 0.5 mph /  0.8 km/h 3.5 mph /  5.6 km/h 80 % 0.0 in /  0 mm
20:42 1.5 °F /  -16.9 °C -1.6 °F /  -18.7 °C 1024.9 in /  34703.1 hPa NW 0.3 mph /  0.5 km/h 3.2 mph /  5.1 km/h 80 % 0.0 in /  0 mm
20:47 1.5 °F /  -16.9 °C -1.4 °F /  -18.6 °C 1024.9 in /  34703.1 hPa Calm     81 % 0.0 in /  0 mm
20:52 1.4 °F /  -17 °C -1.5 °F /  -18.6 °C 1024.9 in /  34703.1 hPa NW 0.2 mph /  0.3 km/h 2.1 mph /  3.4 km/h 81 % 0.0 in /  0 mm
20:57 1.4 °F /  -17 °C -1.5 °F /  -18.6 °C 1024.9 in /  34703.1 hPa NW 0.2 mph /  0.3 km/h 2.1 mph /  3.4 km/h 81 % 0.0 in /  0 mm
21:02 1.4 °F /  -17 °C -1.5 °F /  -18.6 °C 1024.9 in /  34703.1 hPa Calm     81 % 0.0 in /  0 mm
21:07 1.3 °F /  -17.1 °C -1.4 °F /  -18.6 °C 1024.9 in /  34703.1 hPa NW 0.3 mph /  0.5 km/h 3.2 mph /  5.1 km/h 82 % 0.0 in /  0 mm
21:12 1.3 °F /  -17.1 °C -1.4 °F /  -18.6 °C 1024.9 in /  34703.1 hPa NW 1.4 mph /  2.3 km/h 4.3 mph /  6.9 km/h 82 % 0.0 in /  0 mm
21:17 1.3 °F /  -17.1 °C -1.4 °F /  -18.6 °C 1024.9 in /  34703.1 hPa NW 1.0 mph /  1.6 km/h 4.3 mph /  6.9 km/h 82 % 0.0 in /  0 mm
21:22 1.2 °F /  -17.1 °C -1.6 °F /  -18.7 °C 1024.9 in /  34703.1 hPa Calm   3.5 mph /  5.6 km/h 82 % 0.0 in /  0 mm
21:27 1.2 °F /  -17.1 °C -1.4 °F /  -18.6 °C 1024.9 in /  34703.1 hPa Calm     83 % 0.0 in /  0 mm
21:32 1.2 °F /  -17.1 °C -1.4 °F /  -18.6 °C 1024.9 in /  34703.1 hPa Calm     83 % 0.0 in /  0 mm
21:37 1.1 °F /  -17.2 °C -1.4 °F /  -18.6 °C 1024.9 in /  34703.1 hPa Calm     83 % 0.0 in /  0 mm
21:42 1.1 °F /  -17.2 °C -1.4 °F /  -18.6 °C 1024.9 in /  34703.1 hPa Calm     83 % 0.0 in /  0 mm
21:47 1.0 °F /  -17.2 °C -1.6 °F /  -18.7 °C 1024.9 in /  34703.1 hPa Calm     83 % 0.0 in /  0 mm
21:52 0.9 °F /  -17.3 °C -1.5 °F /  -18.6 °C 1024.9 in /  34703.1 hPa Calm     84 % 0.0 in /  0 mm
21:58 0.9 °F /  -17.3 °C -1.5 °F /  -18.6 °C 1024.9 in /  34703.1 hPa Calm     84 % 0.0 in /  0 mm
22:03 0.8 °F /  -17.3 °C -1.6 °F /  -18.7 °C 1024.9 in /  34703.1 hPa Calm     84 % 0.0 in /  0 mm
22:08 0.7 °F /  -17.4 °C -1.7 °F /  -18.7 °C 1024.9 in /  34703.1 hPa Calm     84 % 0.0 in /  0 mm
22:13 0.6 °F /  -17.4 °C -1.8 °F /  -18.8 °C 1024.9 in /  34703.1 hPa Calm     84 % 0.0 in /  0 mm
22:18 0.6 °F /  -17.4 °C -1.8 °F /  -18.8 °C 1024.9 in /  34703.1 hPa Calm     84 % 0.0 in /  0 mm
22:23 0.6 °F /  -17.4 °C -1.8 °F /  -18.8 °C 1024.9 in /  34703.1 hPa Calm     84 % 0.0 in /  0 mm
22:28 0.5 °F /  -17.5 °C -1.7 °F /  -18.7 °C 1024.9 in /  34703.1 hPa Calm     85 % 0.0 in /  0 mm
22:33 0.4 °F /  -17.6 °C -1.8 °F /  -18.8 °C 1024.9 in /  34703.1 hPa Calm     85 % 0.0 in /  0 mm
22:38 0.4 °F /  -17.6 °C -1.8 °F /  -18.8 °C 1024.9 in /  34703.1 hPa Calm     85 % 0.0 in /  0 mm
22:43 0.3 °F /  -17.6 °C -1.9 °F /  -18.8 °C 1024.9 in /  34703.1 hPa Calm     85 % 0.0 in /  0 mm
22:48 0.2 °F /  -17.7 °C -2.0 °F /  -18.9 °C 1024.9 in /  34703.1 hPa Calm     85 % 0.0 in /  0 mm
22:53 0.1 °F /  -17.7 °C -2.1 °F /  -18.9 °C 1024.9 in /  34703.1 hPa Calm     85 % 0.0 in /  0 mm
22:58 0.1 °F /  -17.7 °C -2.1 °F /  -18.9 °C 1024.9 in /  34703.1 hPa Calm     85 % 0.0 in /  0 mm
23:03 0.1 °F /  -17.7 °C -2.1 °F /  -18.9 °C 1024.9 in /  34703.1 hPa Calm     85 % 0.0 in /  0 mm
23:08 0.0 °F /  -17.8 °C -2.2 °F /  -19 °C 1024.9 in /  34703.1 hPa Calm     85 % 0.0 in /  0 mm
23:13 -0.1 °F /  -17.8 °C -2.2 °F /  -19 °C 1023.9 in /  34669.3 hPa Calm     86 % 0.0 in /  0 mm
23:18 -0.1 °F /  -17.8 °C -2.2 °F /  -19 °C 1023.9 in /  34669.3 hPa Calm     86 % 0.0 in /  0 mm
23:23 -0.1 °F /  -17.8 °C -2.2 °F /  -19 °C 1023.9 in /  34669.3 hPa Calm     86 % 0.0 in /  0 mm
23:28 -0.2 °F /  -17.9 °C -2.3 °F /  -19.1 °C 1023.9 in /  34669.3 hPa Calm     86 % 0.0 in /  0 mm
23:33 -0.3 °F /  -17.9 °C -2.3 °F /  -19.1 °C 1023.9 in /  34669.3 hPa Calm     86 % 0.0 in /  0 mm
23:38 -0.3 °F /  -17.9 °C -2.3 °F /  -19.1 °C 1023.9 in /  34669.3 hPa Calm     86 % 0.0 in /  0 mm
23:43 -0.3 °F /  -17.9 °C -2.3 °F /  -19.1 °C 1026.0 in /  34740.4 hPa Calm     86 % 0.0 in /  0 mm
23:48 -0.4 °F /  -18 °C -2.4 °F /  -19.1 °C 1026.0 in /  34740.4 hPa Calm     86 % 0.0 in /  0 mm
23:53 -0.4 °F /  -18 °C -2.4 °F /  -19.1 °C 1026.0 in /  34740.4 hPa Calm     86 % 0.0 in /  0 mm
23:58 -0.5 °F /  -18.1 °C -2.6 °F /  -19.2 °C 1026.0 in /  34740.4 hPa Calm     86 % 0.0 in /  0 mm
Vremenska postaja Senovo
Podatki zbrani iz Weather Underground - 3 mb

Script developed by  Jim McMurry - jmcmurry@mwt.net Adapted for the template by  Wim van der Kuil - Leuven-Template.eu

Vremenski podatki so objavljeni na:

European Weather Network

WeatherCloud

Weather Underground

AWEKAS

HAMweather, WeatherForYou, PWS Weather

MapView

Geostik

Slovenia weather network

Oprema, ki se uporablja:

Vremenski program
Cumulus

Vremenski server
Asus

Cumulus

Asus